Houston, Texas
Traffic Map
Current Weather Conditions
Houston, Texas
Overcast Haze
Overcast
13°
Feels Like: 13°
Wind Chill: 13° Ceiling: 700
Heat Index: 13° Visibility: 6mi
Dew Point: 12° Wind: 10mph
Humidity: 93% Direction: 350° (N)
Pressure: 30.19in Gusts: 0mph
Raw Report DataKIAH 080653Z 35009KT 6SM BR BKN007 BKN017 OVC037 13/12 A3019 RMK AO2 RAE39 SLP224 P0005 T01330122
Traffic Incident Summary
Active as of:
Severity:
Category:
InformationThere was an issue retrieving the traffic information for this location. Please try a different location or try again shortly.
Advertisements
Track Severe Weather on mobile